sensor_id;sensor_type;location;lat;lon;timestamp;P1;durP1;ratioP1;P2;durP2;ratioP2
59054;SDS011;44845;51.444;7.460;2022-11-15T00:01:18;9.55;;;5.13;;
59054;SDS011;44845;51.444;7.460;2022-11-15T00:03:43;8.45;;;5.70;;
59054;SDS011;44845;51.444;7.460;2022-11-15T00:06:09;8.00;;;5.20;;
59054;SDS011;44845;51.444;7.460;2022-11-15T00:08:34;9.48;;;5.70;;
59054;SDS011;44845;51.444;7.460;2022-11-15T00:11:01;11.45;;;5.60;;
59054;SDS011;44845;51.444;7.460;2022-11-15T00:13:27;7.90;;;5.35;;
59054;SDS011;44845;51.444;7.460;2022-11-15T00:15:56;9.90;;;5.95;;
59054;SDS011;44845;51.444;7.460;2022-11-15T00:18:22;8.25;;;5.20;;
59054;SDS011;44845;51.444;7.460;2022-11-15T00:20:47;7.00;;;5.00;;
59054;SDS011;44845;51.444;7.460;2022-11-15T00:23:12;10.00;;;5.15;;
59054;SDS011;44845;51.444;7.460;2022-11-15T00:25:38;7.05;;;5.18;;
59054;SDS011;44845;51.444;7.460;2022-11-15T00:28:03;10.80;;;5.50;;
59054;SDS011;44845;51.444;7.460;2022-11-15T00:30:29;8.27;;;5.20;;
59054;SDS011;44845;51.444;7.460;2022-11-15T00:32:54;7.55;;;5.45;;
59054;SDS011;44845;51.444;7.460;2022-11-15T00:35:20;8.48;;;5.63;;
59054;SDS011;44845;51.444;7.460;2022-11-15T00:37:46;9.88;;;5.65;;
59054;SDS011;44845;51.444;7.460;2022-11-15T00:40:12;7.65;;;5.07;;
59054;SDS011;44845;51.444;7.460;2022-11-15T00:42:38;9.95;;;6.00;;
59054;SDS011;44845;51.444;7.460;2022-11-15T00:45:04;10.95;;;5.15;;
59054;SDS011;44845;51.444;7.460;2022-11-15T00:47:29;9.15;;;5.10;;
59054;SDS011;44845;51.444;7.460;2022-11-15T00:49:55;7.53;;;4.85;;
59054;SDS011;44845;51.444;7.460;2022-11-15T00:52:20;5.65;;;4.90;;
59054;SDS011;44845;51.444;7.460;2022-11-15T00:54:45;9.07;;;5.53;;
59054;SDS011;44845;51.444;7.460;2022-11-15T00:57:11;7.05;;;5.32;;
59054;SDS011;44845;51.444;7.460;2022-11-15T00:59:36;10.50;;;5.25;;
59054;SDS011;44845;51.444;7.460;2022-11-15T01:02:02;10.57;;;5.78;;
59054;SDS011;44845;51.444;7.460;2022-11-15T01:04:27;11.98;;;5.45;;
59054;SDS011;44845;51.444;7.460;2022-11-15T01:06:53;11.55;;;5.47;;
59054;SDS011;44845;51.444;7.460;2022-11-15T01:09:18;10.30;;;5.13;;
59054;SDS011;44845;51.444;7.460;2022-11-15T01:11:44;7.40;;;5.40;;
59054;SDS011;44845;51.444;7.460;2022-11-15T01:14:09;8.95;;;4.82;;
59054;SDS011;44845;51.444;7.460;2022-11-15T01:16:34;8.23;;;4.63;;
59054;SDS011;44845;51.444;7.460;2022-11-15T01:19:00;8.90;;;5.38;;
59054;SDS011;44845;51.444;7.460;2022-11-15T01:21:25;9.05;;;5.35;;
59054;SDS011;44845;51.444;7.460;2022-11-15T01:23:54;7.13;;;4.85;;
59054;SDS011;44845;51.444;7.460;2022-11-15T01:26:20;7.57;;;5.03;;
59054;SDS011;44845;51.444;7.460;2022-11-15T01:28:46;9.95;;;5.22;;
59054;SDS011;44845;51.444;7.460;2022-11-15T01:31:13;8.15;;;5.20;;
59054;SDS011;44845;51.444;7.460;2022-11-15T01:33:41;7.15;;;4.53;;
59054;SDS011;44845;51.444;7.460;2022-11-15T01:36:08;10.27;;;5.10;;
59054;SDS011;44845;51.444;7.460;2022-11-15T01:38:37;7.22;;;5.55;;
59054;SDS011;44845;51.444;7.460;2022-11-15T01:41:02;12.43;;;5.32;;
59054;SDS011;44845;51.444;7.460;2022-11-15T01:43:30;8.88;;;5.10;;
59054;SDS011;44845;51.444;7.460;2022-11-15T01:46:18;9.35;;;4.85;;
59054;SDS011;44845;51.444;7.460;2022-11-15T01:48:46;6.35;;;5.10;;
59054;SDS011;44845;51.444;7.460;2022-11-15T01:51:12;8.93;;;5.35;;
59054;SDS011;44845;51.444;7.460;2022-11-15T01:53:41;12.85;;;5.57;;
59054;SDS011;44845;51.444;7.460;2022-11-15T01:56:11;6.85;;;4.80;;
59054;SDS011;44845;51.444;7.460;2022-11-15T01:58:40;7.18;;;5.00;;
59054;SDS011;44845;51.444;7.460;2022-11-15T02:01:08;5.85;;;4.43;;
59054;SDS011;44845;51.444;7.460;2022-11-15T02:03:39;8.15;;;5.38;;
59054;SDS011;44845;51.444;7.460;2022-11-15T02:06:11;8.20;;;5.53;;
59054;SDS011;44845;51.444;7.460;2022-11-15T02:08:36;6.93;;;5.35;;
59054;SDS011;44845;51.444;7.460;2022-11-15T02:11:04;7.97;;;4.88;;
59054;SDS011;44845;51.444;7.460;2022-11-15T02:13:32;8.23;;;5.05;;
59054;SDS011;44845;51.444;7.460;2022-11-15T02:16:04;9.48;;;5.30;;
59054;SDS011;44845;51.444;7.460;2022-11-15T02:18:40;9.10;;;5.45;;
59054;SDS011;44845;51.444;7.460;2022-11-15T02:21:17;7.45;;;5.15;;
59054;SDS011;44845;51.444;7.460;2022-11-15T02:24:13;10.65;;;4.90;;
59054;SDS011;44845;51.444;7.460;2022-11-15T02:32:12;6.95;;;5.28;;
59054;SDS011;44845;51.444;7.460;2022-11-15T02:42:57;9.93;;;5.22;;
59054;SDS011;44845;51.444;7.460;2022-11-15T02:45:56;9.55;;;5.45;;
59054;SDS011;44845;51.444;7.460;2022-11-15T02:48:29;10.32;;;5.60;;
59054;SDS011;44845;51.444;7.460;2022-11-15T02:50:56;12.10;;;5.82;;
59054;SDS011;44845;51.444;7.460;2022-11-15T02:53:26;11.63;;;5.72;;
59054;SDS011;44845;51.444;7.460;2022-11-15T02:55:52;8.93;;;5.65;;
59054;SDS011;44845;51.444;7.460;2022-11-15T02:58:24;11.93;;;6.40;;
59054;SDS011;44845;51.444;7.460;2022-11-15T03:07:07;9.07;;;5.70;;
59054;SDS011;44845;51.444;7.460;2022-11-15T03:09:41;9.43;;;6.18;;
59054;SDS011;44845;51.444;7.460;2022-11-15T03:12:23;9.25;;;6.45;;
59054;SDS011;44845;51.444;7.460;2022-11-15T03:15:00;11.38;;;6.00;;
59054;SDS011;44845;51.444;7.460;2022-11-15T03:17:30;8.77;;;5.53;;
59054;SDS011;44845;51.444;7.460;2022-11-15T03:20:01;12.77;;;5.90;;
59054;SDS011;44845;51.444;7.460;2022-11-15T03:22:29;9.73;;;5.93;;
59054;SDS011;44845;51.444;7.460;2022-11-15T03:25:02;8.43;;;5.90;;
59054;SDS011;44845;51.444;7.460;2022-11-15T03:27:33;12.48;;;6.15;;
59054;SDS011;44845;51.444;7.460;2022-11-15T03:30:04;6.05;;;4.85;;
59054;SDS011;44845;51.444;7.460;2022-11-15T03:32:34;7.03;;;5.05;;
59054;SDS011;44845;51.444;7.460;2022-11-15T03:35:07;4.85;;;4.35;;
59054;SDS011;44845;51.444;7.460;2022-11-15T03:37:39;9.95;;;5.30;;
59054;SDS011;44845;51.444;7.460;2022-11-15T03:40:09;10.18;;;5.45;;
59054;SDS011;44845;51.444;7.460;2022-11-15T03:45:36;7.70;;;4.80;;
59054;SDS011;44845;51.444;7.460;2022-11-15T03:48:13;7.72;;;5.10;;
59054;SDS011;44845;51.444;7.460;2022-11-15T03:50:42;9.73;;;5.50;;
59054;SDS011;44845;51.444;7.460;2022-11-15T03:53:08;8.88;;;4.93;;
59054;SDS011;44845;51.444;7.460;2022-11-15T03:55:33;7.28;;;5.15;;
59054;SDS011;44845;51.444;7.460;2022-11-15T03:57:59;6.85;;;5.15;;
59054;SDS011;44845;51.444;7.460;2022-11-15T04:00:25;9.07;;;5.30;;
59054;SDS011;44845;51.444;7.460;2022-11-15T04:02:51;8.30;;;5.00;;
59054;SDS011;44845;51.444;7.460;2022-11-15T04:05:17;6.45;;;5.13;;
59054;SDS011;44845;51.444;7.460;2022-11-15T04:07:42;6.50;;;5.18;;
59054;SDS011;44845;51.444;7.460;2022-11-15T04:10:08;7.78;;;5.20;;
59054;SDS011;44845;51.444;7.460;2022-11-15T04:12:35;5.72;;;4.43;;
59054;SDS011;44845;51.444;7.460;2022-11-15T04:15:08;8.15;;;4.68;;
59054;SDS011;44845;51.444;7.460;2022-11-15T04:17:36;6.45;;;5.03;;
59054;SDS011;44845;51.444;7.460;2022-11-15T04:20:18;7.78;;;4.70;;
59054;SDS011;44845;51.444;7.460;2022-11-15T04:23:20;6.75;;;4.43;;
59054;SDS011;44845;51.444;7.460;2022-11-15T04:26:06;7.10;;;4.88;;
59054;SDS011;44845;51.444;7.460;2022-11-15T04:28:46;8.98;;;5.25;;
59054;SDS011;44845;51.444;7.460;2022-11-15T04:31:30;6.32;;;4.45;;
59054;SDS011;44845;51.444;7.460;2022-11-15T04:33:56;5.55;;;4.80;;
59054;SDS011;44845;51.444;7.460;2022-11-15T04:36:21;6.75;;;4.80;;
59054;SDS011;44845;51.444;7.460;2022-11-15T04:39:05;5.95;;;4.30;;
59054;SDS011;44845;51.444;7.460;2022-11-15T04:41:31;6.13;;;5.03;;
59054;SDS011;44845;51.444;7.460;2022-11-15T04:43:56;6.65;;;5.22;;
59054;SDS011;44845;51.444;7.460;2022-11-15T04:46:22;7.68;;;5.50;;
59054;SDS011;44845;51.444;7.460;2022-11-15T04:48:48;8.43;;;5.43;;
59054;SDS011;44845;51.444;7.460;2022-11-15T04:51:14;7.80;;;5.15;;
59054;SDS011;44845;51.444;7.460;2022-11-15T04:53:40;10.68;;;5.57;;
59054;SDS011;44845;51.444;7.460;2022-11-15T04:56:05;6.65;;;4.80;;
59054;SDS011;44845;51.444;7.460;2022-11-15T04:58:31;6.20;;;5.22;;
59054;SDS011;44845;51.444;7.460;2022-11-15T05:00:56;6.47;;;5.32;;
59054;SDS011;44845;51.444;7.460;2022-11-15T05:03:21;6.20;;;5.40;;
59054;SDS011;44845;51.444;7.460;2022-11-15T05:06:05;7.10;;;5.93;;
59054;SDS011;44845;51.444;7.460;2022-11-15T05:08:31;6.82;;;5.25;;
59054;SDS011;44845;51.444;7.460;2022-11-15T05:10:56;5.63;;;5.03;;
59054;SDS011;44845;51.444;7.460;2022-11-15T05:13:22;6.80;;;4.97;;
59054;SDS011;44845;51.444;7.460;2022-11-15T05:15:47;6.55;;;4.95;;
59054;SDS011;44845;51.444;7.460;2022-11-15T05:18:12;7.35;;;5.10;;
59054;SDS011;44845;51.444;7.460;2022-11-15T05:20:38;6.82;;;4.70;;
59054;SDS011;44845;51.444;7.460;2022-11-15T05:23:04;6.55;;;4.57;;
59054;SDS011;44845;51.444;7.460;2022-11-15T05:25:29;5.47;;;4.93;;
59054;SDS011;44845;51.444;7.460;2022-11-15T05:27:54;5.38;;;4.80;;
59054;SDS011;44845;51.444;7.460;2022-11-15T05:30:20;7.45;;;5.22;;
59054;SDS011;44845;51.444;7.460;2022-11-15T05:32:45;5.82;;;4.78;;
59054;SDS011;44845;51.444;7.460;2022-11-15T05:35:17;7.90;;;4.78;;
59054;SDS011;44845;51.444;7.460;2022-11-15T05:37:48;5.75;;;4.75;;
59054;SDS011;44845;51.444;7.460;2022-11-15T05:40:14;6.15;;;4.75;;
59054;SDS011;44845;51.444;7.460;2022-11-15T05:42:40;5.90;;;4.80;;
59054;SDS011;44845;51.444;7.460;2022-11-15T05:45:05;5.47;;;4.90;;
59054;SDS011;44845;51.444;7.460;2022-11-15T05:47:33;6.22;;;4.57;;
59054;SDS011;44845;51.444;7.460;2022-11-15T05:50:00;6.40;;;4.75;;
59054;SDS011;44845;51.444;7.460;2022-11-15T05:52:27;5.70;;;4.10;;
59054;SDS011;44845;51.444;7.460;2022-11-15T05:54:57;6.15;;;4.45;;
59054;SDS011;44845;51.444;7.460;2022-11-15T05:57:24;6.07;;;4.40;;
59054;SDS011;44845;51.444;7.460;2022-11-15T05:59:49;6.88;;;4.63;;
59054;SDS011;44845;51.444;7.460;2022-11-15T06:02:15;6.82;;;4.53;;
59054;SDS011;44845;51.444;7.460;2022-11-15T06:04:40;6.80;;;4.40;;
59054;SDS011;44845;51.444;7.460;2022-11-15T06:07:05;5.85;;;4.13;;
59054;SDS011;44845;51.444;7.460;2022-11-15T06:09:31;6.90;;;4.70;;
59054;SDS011;44845;51.444;7.460;2022-11-15T06:11:56;6.50;;;4.38;;
59054;SDS011;44845;51.444;7.460;2022-11-15T06:14:21;6.47;;;4.63;;
59054;SDS011;44845;51.444;7.460;2022-11-15T06:16:47;5.82;;;4.40;;
59054;SDS011;44845;51.444;7.460;2022-11-15T06:19:12;5.45;;;4.22;;
59054;SDS011;44845;51.444;7.460;2022-11-15T06:21:37;4.75;;;4.03;;
59054;SDS011;44845;51.444;7.460;2022-11-15T06:24:03;4.72;;;4.07;;
59054;SDS011;44845;51.444;7.460;2022-11-15T06:26:29;5.93;;;3.92;;
59054;SDS011;44845;51.444;7.460;2022-11-15T06:28:54;5.00;;;3.20;;
59054;SDS011;44845;51.444;7.460;2022-11-15T06:31:20;4.47;;;3.58;;
59054;SDS011;44845;51.444;7.460;2022-11-15T06:33:46;5.82;;;3.83;;
59054;SDS011;44845;51.444;7.460;2022-11-15T06:36:12;5.22;;;3.20;;
59054;SDS011;44845;51.444;7.460;2022-11-15T06:38:42;7.00;;;2.90;;
59054;SDS011;44845;51.444;7.460;2022-11-15T06:41:08;3.80;;;2.83;;
59054;SDS011;44845;51.444;7.460;2022-11-15T06:43:35;3.58;;;2.78;;
59054;SDS011;44845;51.444;7.460;2022-11-15T06:46:01;3.55;;;2.55;;
59054;SDS011;44845;51.444;7.460;2022-11-15T06:48:28;2.65;;;2.35;;
59054;SDS011;44845;51.444;7.460;2022-11-15T06:50:54;3.13;;;2.20;;
59054;SDS011;44845;51.444;7.460;2022-11-15T06:53:21;3.15;;;2.20;;
59054;SDS011;44845;51.444;7.460;2022-11-15T06:55:47;2.15;;;1.95;;
59054;SDS011;44845;51.444;7.460;2022-11-15T06:58:13;3.30;;;2.22;;
59054;SDS011;44845;51.444;7.460;2022-11-15T07:00:38;3.08;;;2.60;;
59054;SDS011;44845;51.444;7.460;2022-11-15T07:03:04;4.30;;;2.60;;
59054;SDS011;44845;51.444;7.460;2022-11-15T07:05:29;3.25;;;2.33;;
59054;SDS011;44845;51.444;7.460;2022-11-15T07:07:55;4.97;;;2.22;;
59054;SDS011;44845;51.444;7.460;2022-11-15T07:10:21;2.55;;;2.35;;
59054;SDS011;44845;51.444;7.460;2022-11-15T07:12:49;4.28;;;2.13;;
59054;SDS011;44845;51.444;7.460;2022-11-15T07:15:19;2.03;;;1.73;;
59054;SDS011;44845;51.444;7.460;2022-11-15T07:17:46;2.20;;;1.70;;
59054;SDS011;44845;51.444;7.460;2022-11-15T07:20:12;2.63;;;1.90;;
59054;SDS011;44845;51.444;7.460;2022-11-15T07:22:38;3.40;;;1.80;;
59054;SDS011;44845;51.444;7.460;2022-11-15T07:25:04;2.15;;;1.60;;
59054;SDS011;44845;51.444;7.460;2022-11-15T07:27:29;2.03;;;1.70;;
59054;SDS011;44845;51.444;7.460;2022-11-15T07:29:55;2.30;;;1.38;;
59054;SDS011;44845;51.444;7.460;2022-11-15T07:32:20;3.10;;;1.63;;
59054;SDS011;44845;51.444;7.460;2022-11-15T07:34:45;2.55;;;1.77;;
59054;SDS011;44845;51.444;7.460;2022-11-15T07:37:11;2.50;;;1.98;;
59054;SDS011;44845;51.444;7.460;2022-11-15T07:39:37;3.30;;;1.50;;
59054;SDS011;44845;51.444;7.460;2022-11-15T07:42:03;2.42;;;1.70;;
59054;SDS011;44845;51.444;7.460;2022-11-15T07:44:47;1.80;;;1.67;;
59054;SDS011;44845;51.444;7.460;2022-11-15T07:47:12;2.42;;;1.77;;
59054;SDS011;44845;51.444;7.460;2022-11-15T07:49:38;2.13;;;1.52;;
59054;SDS011;44845;51.444;7.460;2022-11-15T07:52:03;4.18;;;1.73;;
59054;SDS011;44845;51.444;7.460;2022-11-15T07:54:29;3.63;;;1.70;;
59054;SDS011;44845;51.444;7.460;2022-11-15T07:56:54;2.30;;;1.50;;
59054;SDS011;44845;51.444;7.460;2022-11-15T07:59:19;2.35;;;1.60;;
59054;SDS011;44845;51.444;7.460;2022-11-15T08:01:45;2.65;;;1.30;;
59054;SDS011;44845;51.444;7.460;2022-11-15T08:04:11;2.10;;;1.90;;
59054;SDS011;44845;51.444;7.460;2022-11-15T08:06:36;3.08;;;1.40;;
59054;SDS011;44845;51.444;7.460;2022-11-15T08:09:02;2.47;;;1.50;;
59054;SDS011;44845;51.444;7.460;2022-11-15T08:11:27;3.63;;;1.55;;
59054;SDS011;44845;51.444;7.460;2022-11-15T08:13:53;2.00;;;1.40;;
59054;SDS011;44845;51.444;7.460;2022-11-15T08:16:18;3.50;;;1.63;;
59054;SDS011;44845;51.444;7.460;2022-11-15T08:18:44;3.08;;;1.60;;
59054;SDS011;44845;51.444;7.460;2022-11-15T08:21:09;2.88;;;1.35;;
59054;SDS011;44845;51.444;7.460;2022-11-15T08:23:39;1.88;;;1.58;;
59054;SDS011;44845;51.444;7.460;2022-11-15T08:26:04;3.67;;;1.20;;
59054;SDS011;44845;51.444;7.460;2022-11-15T08:28:30;1.90;;;1.30;;
59054;SDS011;44845;51.444;7.460;2022-11-15T08:30:56;1.08;;;1.00;;
59054;SDS011;44845;51.444;7.460;2022-11-15T08:33:22;2.28;;;1.17;;
59054;SDS011;44845;51.444;7.460;2022-11-15T08:35:48;3.03;;;1.30;;
59054;SDS011;44845;51.444;7.460;2022-11-15T08:38:13;3.80;;;1.30;;
59054;SDS011;44845;51.444;7.460;2022-11-15T08:40:39;2.83;;;1.30;;
59054;SDS011;44845;51.444;7.460;2022-11-15T08:43:05;1.10;;;1.00;;
59054;SDS011;44845;51.444;7.460;2022-11-15T08:45:30;1.83;;;1.00;;
59054;SDS011;44845;51.444;7.460;2022-11-15T08:47:57;3.00;;;1.10;;
59054;SDS011;44845;51.444;7.460;2022-11-15T08:50:22;2.28;;;1.15;;
59054;SDS011;44845;51.444;7.460;2022-11-15T08:52:48;1.60;;;1.13;;
59054;SDS011;44845;51.444;7.460;2022-11-15T08:55:13;1.50;;;1.27;;
59054;SDS011;44845;51.444;7.460;2022-11-15T08:57:39;2.67;;;1.02;;
59054;SDS011;44845;51.444;7.460;2022-11-15T09:00:04;1.85;;;1.08;;
59054;SDS011;44845;51.444;7.460;2022-11-15T09:02:31;2.25;;;1.10;;
59054;SDS011;44845;51.444;7.460;2022-11-15T09:04:57;1.42;;;1.17;;
59054;SDS011;44845;51.444;7.460;2022-11-15T09:07:22;0.90;;;0.90;;
59054;SDS011;44845;51.444;7.460;2022-11-15T09:09:47;1.10;;;0.93;;
59054;SDS011;44845;51.444;7.460;2022-11-15T09:12:13;1.48;;;0.90;;
59054;SDS011;44845;51.444;7.460;2022-11-15T09:14:38;2.58;;;1.50;;
59054;SDS011;44845;51.444;7.460;2022-11-15T09:17:06;2.28;;;1.15;;
59054;SDS011;44845;51.444;7.460;2022-11-15T09:19:33;1.50;;;0.88;;
59054;SDS011;44845;51.444;7.460;2022-11-15T09:21:58;2.50;;;0.90;;
59054;SDS011;44845;51.444;7.460;2022-11-15T09:24:24;2.50;;;0.73;;
59054;SDS011;44845;51.444;7.460;2022-11-15T09:26:50;1.17;;;0.80;;
59054;SDS011;44845;51.444;7.460;2022-11-15T09:29:16;1.77;;;0.93;;
59054;SDS011;44845;51.444;7.460;2022-11-15T09:31:42;1.88;;;0.90;;
59054;SDS011;44845;51.444;7.460;2022-11-15T09:34:07;3.08;;;0.88;;
59054;SDS011;44845;51.444;7.460;2022-11-15T09:36:33;1.00;;;0.90;;
59054;SDS011;44845;51.444;7.460;2022-11-15T09:38:58;2.55;;;0.80;;
59054;SDS011;44845;51.444;7.460;2022-11-15T09:41:38;0.68;;;0.60;;
59054;SDS011;44845;51.444;7.460;2022-11-15T09:50:15;2.83;;;0.93;;
59054;SDS011;44845;51.444;7.460;2022-11-15T09:52:52;0.73;;;0.73;;
59054;SDS011;44845;51.444;7.460;2022-11-15T09:55:17;0.90;;;0.60;;
59054;SDS011;44845;51.444;7.460;2022-11-15T09:57:54;2.20;;;0.60;;
59054;SDS011;44845;51.444;7.460;2022-11-15T10:00:35;1.77;;;0.70;;
59054;SDS011;44845;51.444;7.460;2022-11-15T10:05:40;0.75;;;0.70;;
59054;SDS011;44845;51.444;7.460;2022-11-15T10:08:18;2.53;;;0.90;;
59054;SDS011;44845;51.444;7.460;2022-11-15T10:10:49;1.30;;;0.93;;
59054;SDS011;44845;51.444;7.460;2022-11-15T10:13:25;4.68;;;0.85;;
59054;SDS011;44845;51.444;7.460;2022-11-15T10:15:53;0.88;;;0.80;;
59054;SDS011;44845;51.444;7.460;2022-11-15T10:18:32;2.13;;;0.70;;
59054;SDS011;44845;51.444;7.460;2022-11-15T10:21:06;1.13;;;0.70;;
59054;SDS011;44845;51.444;7.460;2022-11-15T10:23:40;1.42;;;0.88;;
59054;SDS011;44845;51.444;7.460;2022-11-15T10:26:07;2.78;;;0.98;;
59054;SDS011;44845;51.444;7.460;2022-11-15T10:28:35;2.65;;;0.77;;
59054;SDS011;44845;51.444;7.460;2022-11-15T10:31:00;1.38;;;0.70;;
59054;SDS011;44845;51.444;7.460;2022-11-15T10:43:39;1.60;;;0.68;;
59054;SDS011;44845;51.444;7.460;2022-11-15T10:46:18;1.13;;;0.60;;
59054;SDS011;44845;51.444;7.460;2022-11-15T10:48:47;1.52;;;0.73;;
59054;SDS011;44845;51.444;7.460;2022-11-15T10:51:20;3.70;;;0.98;;
59054;SDS011;44845;51.444;7.460;2022-11-15T10:53:54;1.25;;;0.90;;
59054;SDS011;44845;51.444;7.460;2022-11-15T10:56:22;2.05;;;0.60;;
59054;SDS011;44845;51.444;7.460;2022-11-15T10:58:51;1.65;;;0.70;;
59054;SDS011;44845;51.444;7.460;2022-11-15T11:01:22;2.55;;;0.90;;
59054;SDS011;44845;51.444;7.460;2022-11-15T11:04:02;5.03;;;0.70;;
59054;SDS011;44845;51.444;7.460;2022-11-15T11:06:30;1.42;;;0.80;;
59054;SDS011;44845;51.444;7.460;2022-11-15T11:09:18;2.22;;;0.80;;
59054;SDS011;44845;51.444;7.460;2022-11-15T11:11:49;1.55;;;1.13;;
59054;SDS011;44845;51.444;7.460;2022-11-15T11:14:26;4.15;;;0.93;;
59054;SDS011;44845;51.444;7.460;2022-11-15T11:28:28;1.83;;;0.80;;
59054;SDS011;44845;51.444;7.460;2022-11-15T11:36:35;1.42;;;0.70;;
59054;SDS011;44845;51.444;7.460;2022-11-15T11:39:33;1.67;;;0.60;;
59054;SDS011;44845;51.444;7.460;2022-11-15T11:42:13;0.65;;;0.65;;
59054;SDS011;44845;51.444;7.460;2022-11-15T11:45:00;1.65;;;0.52;;
59054;SDS011;44845;51.444;7.460;2022-11-15T11:47:40;0.95;;;0.47;;
59054;SDS011;44845;51.444;7.460;2022-11-15T11:50:26;2.05;;;0.60;;
59054;SDS011;44845;51.444;7.460;2022-11-15T11:53:12;1.33;;;0.50;;
59054;SDS011;44845;51.444;7.460;2022-11-15T11:55:47;0.50;;;0.40;;
59054;SDS011;44845;51.444;7.460;2022-11-15T11:58:18;2.45;;;0.55;;
59054;SDS011;44845;51.444;7.460;2022-11-15T12:00:49;2.35;;;0.55;;
59054;SDS011;44845;51.444;7.460;2022-11-15T12:06:01;2.20;;;0.50;;
59054;SDS011;44845;51.444;7.460;2022-11-15T12:08:42;2.67;;;0.47;;
59054;SDS011;44845;51.444;7.460;2022-11-15T12:11:14;1.55;;;0.40;;
59054;SDS011;44845;51.444;7.460;2022-11-15T12:13:45;1.10;;;0.40;;
59054;SDS011;44845;51.444;7.460;2022-11-15T12:16:22;0.77;;;0.40;;
59054;SDS011;44845;51.444;7.460;2022-11-15T12:18:53;2.40;;;0.60;;
59054;SDS011;44845;51.444;7.460;2022-11-15T12:26:43;2.22;;;0.60;;
59054;SDS011;44845;51.444;7.460;2022-11-15T12:29:25;2.75;;;0.75;;
59054;SDS011;44845;51.444;7.460;2022-11-15T12:31:56;0.90;;;0.38;;
59054;SDS011;44845;51.444;7.460;2022-11-15T12:36:52;1.40;;;0.50;;
59054;SDS011;44845;51.444;7.460;2022-11-15T12:39:18;0.88;;;0.45;;
59054;SDS011;44845;51.444;7.460;2022-11-15T13:02:39;1.20;;;0.63;;
59054;SDS011;44845;51.444;7.460;2022-11-15T13:10:52;1.80;;;0.55;;
59054;SDS011;44845;51.444;7.460;2022-11-15T13:18:32;0.82;;;0.30;;
59054;SDS011;44845;51.444;7.460;2022-11-15T13:21:00;2.53;;;0.50;;
59054;SDS011;44845;51.444;7.460;2022-11-15T13:23:26;1.20;;;0.50;;
59054;SDS011;44845;51.444;7.460;2022-11-15T13:31:34;2.63;;;0.52;;
59054;SDS011;44845;51.444;7.460;2022-11-15T13:34:12;1.02;;;0.55;;
59054;SDS011;44845;51.444;7.460;2022-11-15T13:36:45;1.02;;;0.40;;
59054;SDS011;44845;51.444;7.460;2022-11-15T13:41:53;1.30;;;0.47;;
59054;SDS011;44845;51.444;7.460;2022-11-15T13:44:23;1.30;;;0.47;;
59054;SDS011;44845;51.444;7.460;2022-11-15T13:46:48;3.53;;;0.90;;
59054;SDS011;44845;51.444;7.460;2022-11-15T13:49:28;2.40;;;0.70;;
59054;SDS011;44845;51.444;7.460;2022-11-15T13:51:55;1.48;;;0.60;;
59054;SDS011;44845;51.444;7.460;2022-11-15T13:54:23;2.80;;;0.52;;
59054;SDS011;44845;51.444;7.460;2022-11-15T13:56:54;3.35;;;0.55;;
59054;SDS011;44845;51.444;7.460;2022-11-15T13:59:28;2.17;;;0.60;;
59054;SDS011;44845;51.444;7.460;2022-11-15T14:01:56;1.35;;;0.50;;
59054;SDS011;44845;51.444;7.460;2022-11-15T14:04:25;2.80;;;0.60;;
59054;SDS011;44845;51.444;7.460;2022-11-15T14:06:57;2.90;;;0.70;;
59054;SDS011;44845;51.444;7.460;2022-11-15T14:09:40;3.17;;;0.80;;
59054;SDS011;44845;51.444;7.460;2022-11-15T14:12:26;1.55;;;0.98;;
59054;SDS011;44845;51.444;7.460;2022-11-15T14:14:54;2.65;;;1.00;;
59054;SDS011;44845;51.444;7.460;2022-11-15T14:17:21;2.03;;;0.70;;
59054;SDS011;44845;51.444;7.460;2022-11-15T14:19:48;4.03;;;1.02;;
59054;SDS011;44845;51.444;7.460;2022-11-15T14:22:15;3.17;;;0.98;;
59054;SDS011;44845;51.444;7.460;2022-11-15T14:24:46;1.50;;;0.90;;
59054;SDS011;44845;51.444;7.460;2022-11-15T14:27:30;1.70;;;1.00;;
59054;SDS011;44845;51.444;7.460;2022-11-15T14:29:57;3.88;;;1.20;;
59054;SDS011;44845;51.444;7.460;2022-11-15T14:32:23;2.90;;;1.02;;
59054;SDS011;44845;51.444;7.460;2022-11-15T14:35:11;3.35;;;1.20;;
59054;SDS011;44845;51.444;7.460;2022-11-15T14:37:42;1.58;;;0.98;;
59054;SDS011;44845;51.444;7.460;2022-11-15T14:40:08;1.50;;;0.90;;
59054;SDS011;44845;51.444;7.460;2022-11-15T14:42:38;2.45;;;0.90;;
59054;SDS011;44845;51.444;7.460;2022-11-15T14:45:08;2.45;;;0.90;;
59054;SDS011;44845;51.444;7.460;2022-11-15T14:47:36;1.98;;;1.00;;
59054;SDS011;44845;51.444;7.460;2022-11-15T14:50:02;2.42;;;0.93;;
59054;SDS011;44845;51.444;7.460;2022-11-15T14:52:28;2.10;;;1.00;;
59054;SDS011;44845;51.444;7.460;2022-11-15T14:54:55;4.03;;;1.17;;
59054;SDS011;44845;51.444;7.460;2022-11-15T14:57:22;1.05;;;0.80;;
59054;SDS011;44845;51.444;7.460;2022-11-15T14:59:49;3.08;;;1.17;;
59054;SDS011;44845;51.444;7.460;2022-11-15T15:02:16;2.55;;;1.10;;
59054;SDS011;44845;51.444;7.460;2022-11-15T15:04:43;2.25;;;0.85;;
59054;SDS011;44845;51.444;7.460;2022-11-15T15:07:08;3.13;;;1.10;;
59054;SDS011;44845;51.444;7.460;2022-11-15T15:09:34;1.48;;;1.00;;
59054;SDS011;44845;51.444;7.460;2022-11-15T15:11:59;4.38;;;1.23;;
59054;SDS011;44845;51.444;7.460;2022-11-15T15:14:25;4.28;;;1.00;;
59054;SDS011;44845;51.444;7.460;2022-11-15T15:16:50;5.38;;;1.02;;
59054;SDS011;44845;51.444;7.460;2022-11-15T15:19:15;3.08;;;0.90;;
59054;SDS011;44845;51.444;7.460;2022-11-15T15:21:41;4.00;;;1.30;;
59054;SDS011;44845;51.444;7.460;2022-11-15T15:24:07;2.60;;;1.02;;
59054;SDS011;44845;51.444;7.460;2022-11-15T15:26:40;2.67;;;0.90;;
59054;SDS011;44845;51.444;7.460;2022-11-15T15:29:06;2.35;;;0.93;;
59054;SDS011;44845;51.444;7.460;2022-11-15T15:31:33;3.75;;;1.00;;
59054;SDS011;44845;51.444;7.460;2022-11-15T15:33:58;1.48;;;0.80;;
59054;SDS011;44845;51.444;7.460;2022-11-15T15:36:24;2.92;;;1.23;;
59054;SDS011;44845;51.444;7.460;2022-11-15T15:38:49;3.47;;;0.90;;
59054;SDS011;44845;51.444;7.460;2022-11-15T15:41:15;2.95;;;0.98;;
59054;SDS011;44845;51.444;7.460;2022-11-15T15:43:41;2.53;;;0.98;;
59054;SDS011;44845;51.444;7.460;2022-11-15T15:46:24;1.52;;;0.93;;
59054;SDS011;44845;51.444;7.460;2022-11-15T15:48:50;2.13;;;0.88;;
59054;SDS011;44845;51.444;7.460;2022-11-15T15:51:15;4.35;;;1.10;;
59054;SDS011;44845;51.444;7.460;2022-11-15T15:53:41;4.10;;;1.30;;
59054;SDS011;44845;51.444;7.460;2022-11-15T15:56:06;2.33;;;1.15;;
59054;SDS011;44845;51.444;7.460;2022-11-15T15:58:33;2.67;;;1.30;;
59054;SDS011;44845;51.444;7.460;2022-11-15T16:00:58;4.03;;;1.35;;
59054;SDS011;44845;51.444;7.460;2022-11-15T16:03:24;2.45;;;1.23;;
59054;SDS011;44845;51.444;7.460;2022-11-15T16:05:49;1.92;;;0.90;;
59054;SDS011;44845;51.444;7.460;2022-11-15T16:08:19;1.92;;;1.30;;
59054;SDS011;44845;51.444;7.460;2022-11-15T16:10:45;2.85;;;0.88;;
59054;SDS011;44845;51.444;7.460;2022-11-15T16:13:11;4.32;;;0.95;;
59054;SDS011;44845;51.444;7.460;2022-11-15T16:15:36;3.33;;;1.05;;
59054;SDS011;44845;51.444;7.460;2022-11-15T16:18:03;1.52;;;0.82;;
59054;SDS011;44845;51.444;7.460;2022-11-15T16:23:07;1.52;;;0.90;;
59054;SDS011;44845;51.444;7.460;2022-11-15T16:25:37;1.85;;;1.15;;
59054;SDS011;44845;51.444;7.460;2022-11-15T16:28:11;3.10;;;1.20;;
59054;SDS011;44845;51.444;7.460;2022-11-15T16:30:41;2.45;;;1.40;;
59054;SDS011;44845;51.444;7.460;2022-11-15T16:33:07;2.95;;;1.33;;
59054;SDS011;44845;51.444;7.460;2022-11-15T16:35:32;5.38;;;1.20;;
59054;SDS011;44845;51.444;7.460;2022-11-15T16:37:57;1.70;;;1.38;;
59054;SDS011;44845;51.444;7.460;2022-11-15T16:40:27;2.83;;;1.40;;
59054;SDS011;44845;51.444;7.460;2022-11-15T16:42:55;2.20;;;1.25;;
59054;SDS011;44845;51.444;7.460;2022-11-15T16:45:21;4.10;;;1.55;;
59054;SDS011;44845;51.444;7.460;2022-11-15T16:47:46;2.55;;;1.20;;
59054;SDS011;44845;51.444;7.460;2022-11-15T16:50:19;3.63;;;1.40;;